Time;durP1;ratioP1;P1;durP2;ratioP2;P2;SDS_P1;SDS_P2;PMS_P1;PMS_P2;Temp;Humidity;BMP_temperature;BMP_pressure;BME280_temperature;BME280_humidity;BME280_pressure;Samples;Min_cycle;Max_cycle;Signal;HPM_P1;HPM_P2
2022/04/05 00:00:36;;;;;;;6.13;3.45;;;;;;;;;;4934350;29;20051;-68
2022/04/05 00:03:02;;;;;;;5.50;3.88;;;;;;;;;;4932906;29;20040;-69
2022/04/05 00:05:28;;;;;;;6.97;3.78;;;;;;;;;;4933949;29;20036;-70
2022/04/05 00:07:54;;;;;;;7.47;3.60;;;;;;;;;;4933730;29;20040;-70
2022/04/05 00:10:21;;;;;;;7.90;4.07;;;;;;;;;;4937636;29;20059;-67
2022/04/05 00:12:47;;;;;;;8.57;3.92;;;;;;;;;;4936279;29;20042;-69
2022/04/05 00:15:15;;;;;;;8.18;3.72;;;;;;;;;;4937241;29;20032;-69
2022/04/05 00:17:41;;;;;;;5.82;3.60;;;;;;;;;;4937437;29;20035;-69
2022/04/05 00:20:08;;;;;;;7.82;3.40;;;;;;;;;;4937226;29;20518;-70
2022/04/05 00:22:34;;;;;;;7.72;3.80;;;;;;;;;;4937058;29;20036;-72
2022/04/05 00:25:00;;;;;;;6.45;3.65;;;;;;;;;;4937344;29;20062;-69
2022/04/05 00:27:26;;;;;;;9.18;3.50;;;;;;;;;;4934272;29;20063;-68
2022/04/05 00:29:52;;;;;;;8.05;4.15;;;;;;;;;;4935986;29;20139;-69
2022/04/05 00:32:18;;;;;;;4.85;3.50;;;;;;;;;;4937491;29;20059;-70
2022/04/05 00:34:43;;;;;;;6.18;3.47;;;;;;;;;;4937300;29;20032;-69
2022/04/05 00:37:09;;;;;;;5.53;3.75;;;;;;;;;;4936990;29;20028;-68
2022/04/05 00:39:36;;;;;;;5.80;3.60;;;;;;;;;;4937259;29;20035;-68
2022/04/05 00:42:02;;;;;;;10.27;4.40;;;;;;;;;;4937234;29;20040;-67
2022/04/05 00:44:27;;;;;;;6.45;4.00;;;;;;;;;;4937054;29;20046;-68
2022/04/05 00:46:54;;;;;;;5.65;3.85;;;;;;;;;;4937332;29;20043;-68
2022/04/05 00:49:33;;;;;;;5.07;4.00;;;;;;;;;;4937055;29;20043;-69
2022/04/05 00:51:59;;;;;;;7.45;4.35;;;;;;;;;;4935691;29;20044;-68
2022/04/05 00:54:28;;;;;;;8.95;4.00;;;;;;;;;;4936951;29;20179;-67
2022/04/05 00:56:56;;;;;;;7.07;3.90;;;;;;;;;;4935527;29;20036;-69
2022/04/05 00:59:26;;;;;;;5.45;3.38;;;;;;;;;;4937178;29;20103;-67
2022/04/05 01:01:54;;;;;;;7.22;4.00;;;;;;;;;;4937223;29;20043;-68
2022/04/05 01:04:21;;;;;;;9.35;4.78;;;;;;;;;;4937023;29;20111;-68
2022/04/05 01:06:48;;;;;;;6.03;3.80;;;;;;;;;;4937556;29;20039;-68
2022/04/05 01:09:14;;;;;;;6.28;3.90;;;;;;;;;;4937096;29;20383;-69
2022/04/05 01:11:40;;;;;;;7.28;3.75;;;;;;;;;;4935789;29;20062;-69
2022/04/05 01:14:06;;;;;;;8.65;4.07;;;;;;;;;;4936854;29;20098;-69
2022/04/05 01:16:33;;;;;;;7.38;3.90;;;;;;;;;;4936807;29;20114;-68
2022/04/05 01:18:59;;;;;;;6.85;3.95;;;;;;;;;;4936879;29;20035;-69
2022/04/05 01:21:27;;;;;;;6.10;4.30;;;;;;;;;;4936015;29;20484;-68
2022/04/05 01:24:10;;;;;;;8.27;4.40;;;;;;;;;;4936696;29;20032;-68
2022/04/05 01:26:47;;;;;;;6.93;4.05;;;;;;;;;;4936608;29;20529;-68
2022/04/05 01:29:15;;;;;;;12.20;4.25;;;;;;;;;;4936464;29;20414;-68
2022/04/05 01:31:49;;;;;;;7.88;3.90;;;;;;;;;;4936539;29;20558;-69
2022/04/05 01:34:18;;;;;;;7.45;3.88;;;;;;;;;;4936801;29;20066;-69
2022/04/05 01:36:50;;;;;;;9.27;4.30;;;;;;;;;;4936540;29;20020;-69
2022/04/05 01:39:18;;;;;;;11.00;4.30;;;;;;;;;;4936516;29;20110;-68
2022/04/05 01:41:46;;;;;;;8.05;4.50;;;;;;;;;;4936180;29;20446;-73
2022/04/05 01:44:13;;;;;;;7.22;4.38;;;;;;;;;;4936290;29;20306;-71
2022/04/05 01:46:40;;;;;;;6.25;4.18;;;;;;;;;;4936406;29;20031;-70
2022/04/05 01:49:10;;;;;;;8.93;4.55;;;;;;;;;;4936214;29;20454;-71
2022/04/05 01:51:37;;;;;;;5.82;4.25;;;;;;;;;;4936039;29;20035;-69
2022/04/05 01:54:07;;;;;;;8.80;4.35;;;;;;;;;;4936145;29;20479;-69
2022/04/05 01:56:39;;;;;;;9.98;4.90;;;;;;;;;;4938040;29;20127;-70
2022/04/05 01:59:05;;;;;;;10.30;4.75;;;;;;;;;;4936242;29;20343;-70
2022/04/05 02:01:31;;;;;;;9.38;4.65;;;;;;;;;;4935793;29;20028;-68
2022/04/05 02:03:57;;;;;;;9.93;4.90;;;;;;;;;;4934896;29;20035;-68
2022/04/05 02:06:24;;;;;;;10.13;4.85;;;;;;;;;;4935696;29;20039;-71
2022/04/05 02:08:50;;;;;;;8.38;5.05;;;;;;;;;;4934915;29;20063;-70
2022/04/05 02:11:16;;;;;;;8.20;4.57;;;;;;;;;;4935077;29;20047;-72
2022/04/05 02:13:45;;;;;;;8.50;4.80;;;;;;;;;;4933947;29;20491;-73
2022/04/05 02:16:11;;;;;;;9.95;4.95;;;;;;;;;;4930929;29;20040;-69
2022/04/05 02:18:37;;;;;;;9.48;4.70;;;;;;;;;;4935623;29;20038;-68
2022/04/05 02:21:05;;;;;;;15.63;5.80;;;;;;;;;;4934253;29;20030;-68
2022/04/05 02:23:32;;;;;;;7.82;4.85;;;;;;;;;;4933202;29;20050;-66
2022/04/05 02:26:20;;;;;;;7.32;4.78;;;;;;;;;;4934197;29;20506;-70
2022/04/05 02:28:51;;;;;;;9.15;4.63;;;;;;;;;;4930666;29;20059;-69
2022/04/05 02:31:20;;;;;;;11.00;5.18;;;;;;;;;;4933776;29;20484;-70
2022/04/05 02:33:46;;;;;;;12.05;4.93;;;;;;;;;;4933881;29;20083;-69
2022/04/05 02:36:38;;;;;;;15.02;5.63;;;;;;;;;;4935690;29;20047;-69
2022/04/05 02:39:07;;;;;;;12.45;5.20;;;;;;;;;;4933785;29;20040;-68
2022/04/05 02:41:35;;;;;;;9.98;4.55;;;;;;;;;;4933932;29;20115;-69
2022/04/05 02:44:01;;;;;;;9.93;4.50;;;;;;;;;;4933970;29;20516;-69
2022/04/05 02:46:27;;;;;;;9.00;4.40;;;;;;;;;;4930164;29;20483;-69
2022/04/05 02:48:55;;;;;;;10.82;4.50;;;;;;;;;;4935163;29;20138;-69
2022/04/05 02:51:29;;;;;;;13.50;5.80;;;;;;;;;;4933770;29;20487;-70
2022/04/05 02:53:59;;;;;;;28.88;7.32;;;;;;;;;;4933694;29;20053;-70
2022/04/05 02:56:27;;;;;;;22.60;7.03;;;;;;;;;;4933813;29;20391;-70
2022/04/05 02:58:54;;;;;;;10.38;5.60;;;;;;;;;;4933489;29;20040;-68
2022/04/05 03:01:20;;;;;;;13.40;6.07;;;;;;;;;;4934883;29;20471;-69
2022/04/05 03:03:47;;;;;;;23.23;5.90;;;;;;;;;;4918037;29;20040;-70
2022/04/05 03:06:14;;;;;;;10.90;5.65;;;;;;;;;;4934446;29;20394;-69
2022/04/05 03:08:41;;;;;;;8.25;5.88;;;;;;;;;;4934474;29;20498;-69
2022/04/05 03:11:09;;;;;;;9.57;5.40;;;;;;;;;;4936343;29;20094;-69
2022/04/05 03:13:36;;;;;;;12.07;6.45;;;;;;;;;;4936719;29;20044;-67
2022/04/05 03:16:02;;;;;;;18.65;6.60;;;;;;;;;;4931840;29;20035;-69
2022/04/05 03:18:29;;;;;;;8.50;5.72;;;;;;;;;;4924848;29;20047;-71
2022/04/05 03:20:55;;;;;;;20.70;5.95;;;;;;;;;;4933411;29;20036;-71
2022/04/05 03:23:21;;;;;;;20.00;5.88;;;;;;;;;;4932824;29;20211;-70
2022/04/05 03:25:48;;;;;;;22.92;6.05;;;;;;;;;;4934279;29;20039;-70
2022/04/05 03:28:18;;;;;;;17.30;9.60;;;;;;;;;;4934390;29;20525;-68
2022/04/05 03:30:47;;;;;;;21.55;9.77;;;;;;;;;;4932885;29;20110;-72
2022/04/05 03:33:15;;;;;;;12.57;5.20;;;;;;;;;;4932847;29;20035;-72
2022/04/05 03:35:41;;;;;;;15.38;6.13;;;;;;;;;;4932608;29;20390;-69
2022/04/05 03:38:07;;;;;;;12.82;6.30;;;;;;;;;;4917065;29;20031;-69
2022/04/05 03:40:33;;;;;;;14.93;6.07;;;;;;;;;;4932818;29;20403;-73
2022/04/05 03:43:02;;;;;;;14.10;6.22;;;;;;;;;;4933146;29;20395;-71
2022/04/05 03:45:28;;;;;;;14.65;6.00;;;;;;;;;;4936332;29;20027;-70
2022/04/05 03:47:55;;;;;;;12.18;5.13;;;;;;;;;;4929386;29;20380;-70
2022/04/05 03:50:22;;;;;;;12.43;4.97;;;;;;;;;;4917895;29;20104;-70
2022/04/05 03:52:48;;;;;;;9.15;5.03;;;;;;;;;;4921546;29;20514;-71
2022/04/05 03:55:21;;;;;;;;;;;;;;;;;;4920256;29;20039;-71
2022/04/05 03:57:50;;;;;;;12.35;5.43;;;;;;;;;;4918501;29;20368;-71
2022/04/05 04:00:18;;;;;;;10.57;4.72;;;;;;;;;;4917272;29;20221;-72
2022/04/05 04:02:54;;;;;;;12.93;5.57;;;;;;;;;;4917558;29;20463;-69
2022/04/05 04:05:20;;;;;;;8.55;4.70;;;;;;;;;;4917163;29;20119;-69
2022/04/05 04:07:50;;;;;;;12.30;5.38;;;;;;;;;;4917036;29;20027;-70
2022/04/05 04:10:18;;;;;;;15.90;6.57;;;;;;;;;;4917120;29;20062;-72
2022/04/05 04:12:44;;;;;;;12.93;5.78;;;;;;;;;;4916632;29;20028;-69
2022/04/05 04:15:12;;;;;;;15.80;6.80;;;;;;;;;;4917034;29;20540;-69
2022/04/05 04:17:38;;;;;;;11.35;5.85;;;;;;;;;;4928942;29;20024;-69
2022/04/05 04:20:06;;;;;;;19.52;5.90;;;;;;;;;;4935881;29;20046;-73
2022/04/05 04:22:33;;;;;;;11.82;5.15;;;;;;;;;;4936053;29;20032;-72
2022/04/05 04:24:59;;;;;;;9.85;5.28;;;;;;;;;;4937596;29;20082;-72
2022/04/05 04:27:26;;;;;;;23.42;6.45;;;;;;;;;;4936926;29;20035;-72
2022/04/05 04:29:52;;;;;;;21.77;6.75;;;;;;;;;;4936926;29;20103;-71
2022/04/05 04:32:18;;;;;;;19.40;7.57;;;;;;;;;;4932816;29;20059;-73
2022/04/05 04:34:44;;;;;;;11.98;6.63;;;;;;;;;;4936711;29;20050;-73
2022/04/05 04:37:10;;;;;;;18.73;6.95;;;;;;;;;;4936803;29;20102;-71
2022/04/05 04:39:37;;;;;;;27.27;7.55;;;;;;;;;;4935934;29;20042;-73
2022/04/05 04:42:03;;;;;;;10.60;6.78;;;;;;;;;;4936541;29;20079;-73
2022/04/05 04:44:29;;;;;;;12.10;6.13;;;;;;;;;;4935432;29;20419;-72
2022/04/05 04:46:55;;;;;;;13.30;7.00;;;;;;;;;;4935849;29;20028;-72
2022/04/05 04:49:21;;;;;;;16.08;6.03;;;;;;;;;;4936681;29;20040;-73
2022/04/05 04:51:47;;;;;;;13.68;6.20;;;;;;;;;;4936935;29;20424;-72
2022/04/05 04:54:13;;;;;;;11.43;5.47;;;;;;;;;;4936171;29;20036;-74
2022/04/05 04:56:38;;;;;;;14.50;5.30;;;;;;;;;;4934751;29;20035;-73
2022/04/05 04:59:04;;;;;;;9.65;5.20;;;;;;;;;;4938329;29;20323;-71
2022/04/05 05:01:30;;;;;;;7.95;4.82;;;;;;;;;;4934752;29;20035;-72
2022/04/05 05:03:56;;;;;;;11.77;5.30;;;;;;;;;;4935369;29;20399;-72
2022/04/05 05:06:21;;;;;;;8.63;5.35;;;;;;;;;;4934446;29;20032;-72
2022/04/05 05:08:47;;;;;;;12.23;5.22;;;;;;;;;;4933753;29;20035;-73
2022/04/05 05:11:13;;;;;;;19.85;10.40;;;;;;;;;;4936467;29;20019;-72
2022/04/05 05:13:39;;;;;;;13.13;7.30;;;;;;;;;;4935859;29;20098;-72
2022/04/05 05:16:05;;;;;;;13.85;7.32;;;;;;;;;;4935452;29;20122;-72
2022/04/05 05:18:31;;;;;;;21.38;7.13;;;;;;;;;;4935537;29;20039;-72
2022/04/05 05:20:57;;;;;;;35.38;7.68;;;;;;;;;;4936145;29;20040;-72
2022/04/05 05:23:23;;;;;;;25.02;7.68;;;;;;;;;;4935274;29;20036;-74
2022/04/05 05:25:49;;;;;;;21.42;6.82;;;;;;;;;;4936167;29;20099;-75
2022/04/05 05:28:14;;;;;;;23.65;7.72;;;;;;;;;;4935951;29;20402;-73
2022/04/05 05:30:40;;;;;;;24.98;6.93;;;;;;;;;;4935556;29;20039;-73
2022/04/05 05:33:08;;;;;;;20.50;7.32;;;;;;;;;;4917267;29;20048;-72
2022/04/05 05:35:34;;;;;;;27.08;8.50;;;;;;;;;;4917312;29;20044;-74
2022/04/05 05:38:00;;;;;;;12.45;5.95;;;;;;;;;;4916942;29;20037;-76
2022/04/05 05:40:25;;;;;;;12.65;5.68;;;;;;;;;;4917487;29;20127;-77
2022/04/05 05:43:03;;;;;;;11.85;5.85;;;;;;;;;;4917708;29;20036;-74
2022/04/05 05:45:34;;;;;;;16.80;6.65;;;;;;;;;;4916556;29;20103;-73
2022/04/05 05:48:00;;;;;;;14.40;6.07;;;;;;;;;;4916942;29;20044;-74
2022/04/05 05:50:26;;;;;;;8.40;5.43;;;;;;;;;;4917589;29;20032;-75
2022/04/05 05:52:53;;;;;;;12.32;6.15;;;;;;;;;;4916391;29;20040;-72
2022/04/05 05:55:20;;;;;;;15.57;5.82;;;;;;;;;;4917305;29;20115;-71
2022/04/05 05:57:46;;;;;;;10.32;4.90;;;;;;;;;;4917220;29;20032;-72
2022/04/05 06:00:17;;;;;;;11.77;4.63;;;;;;;;;;4917137;29;20136;-71
2022/04/05 06:02:44;;;;;;;8.02;4.43;;;;;;;;;;4917159;29;20118;-73
2022/04/05 06:05:11;;;;;;;6.38;3.75;;;;;;;;;;4917353;29;20024;-71
2022/04/05 06:07:37;;;;;;;8.20;4.72;;;;;;;;;;4916919;29;20067;-71
2022/04/05 06:10:04;;;;;;;11.20;4.43;;;;;;;;;;4917408;29;20052;-71
2022/04/05 06:12:31;;;;;;;7.20;4.50;;;;;;;;;;4917184;29;20043;-71
2022/04/05 06:14:57;;;;;;;13.35;4.88;;;;;;;;;;4917241;29;20032;-74
2022/04/05 06:17:24;;;;;;;9.07;4.20;;;;;;;;;;4917169;29;20039;-72
2022/04/05 06:19:51;;;;;;;10.20;3.97;;;;;;;;;;4917236;29;20032;-71
2022/04/05 06:22:17;;;;;;;9.63;3.97;;;;;;;;;;4917365;29;20127;-73
2022/04/05 06:24:42;;;;;;;8.55;4.30;;;;;;;;;;4916927;29;20073;-72
2022/04/05 06:27:08;;;;;;;7.07;4.20;;;;;;;;;;4917104;29;20039;-72
2022/04/05 06:29:34;;;;;;;5.53;3.60;;;;;;;;;;4916863;29;20123;-73
2022/04/05 06:32:01;;;;;;;15.88;5.20;;;;;;;;;;4916832;29;20596;-72
2022/04/05 06:34:27;;;;;;;17.20;6.00;;;;;;;;;;4916848;29;20080;-72
2022/04/05 06:36:53;;;;;;;10.13;4.88;;;;;;;;;;4917016;29;20036;-72
2022/04/05 06:39:19;;;;;;;13.65;5.97;;;;;;;;;;4917421;29;20031;-73
2022/04/05 06:41:45;;;;;;;9.50;5.43;;;;;;;;;;4917121;29;20038;-74
2022/04/05 06:44:11;;;;;;;8.98;5.50;;;;;;;;;;4916631;29;20020;-70
2022/04/05 06:46:37;;;;;;;9.65;6.22;;;;;;;;;;4916658;29;20501;-70
2022/04/05 06:49:03;;;;;;;12.25;5.50;;;;;;;;;;4916635;29;20543;-72
2022/04/05 06:51:30;;;;;;;10.82;6.00;;;;;;;;;;4916183;29;20036;-72
2022/04/05 06:53:57;;;;;;;17.17;6.10;;;;;;;;;;4916331;29;20096;-71
2022/04/05 06:56:25;;;;;;;17.00;6.40;;;;;;;;;;4917079;29;20028;-73
2022/04/05 06:58:51;;;;;;;11.70;5.40;;;;;;;;;;4916740;29;20062;-74
2022/04/05 07:01:17;;;;;;;13.45;5.90;;;;;;;;;;4915869;29;20067;-72
2022/04/05 07:03:43;;;;;;;14.88;6.40;;;;;;;;;;4916001;29;20071;-71
2022/04/05 07:06:09;;;;;;;12.10;5.68;;;;;;;;;;4916104;29;20043;-71
2022/04/05 07:08:35;;;;;;;13.88;6.15;;;;;;;;;;4915839;29;20118;-72
2022/04/05 07:11:00;;;;;;;10.70;6.03;;;;;;;;;;4916098;29;20111;-69
2022/04/05 07:13:26;;;;;;;10.32;5.40;;;;;;;;;;4916277;29;20111;-71
2022/04/05 07:15:53;;;;;;;9.05;5.15;;;;;;;;;;4916084;29;20063;-72
2022/04/05 07:18:19;;;;;;;10.52;5.43;;;;;;;;;;4915329;29;20028;-73
2022/04/05 07:20:46;;;;;;;15.25;5.80;;;;;;;;;;4933893;29;20036;-73
2022/04/05 07:23:12;;;;;;;10.52;5.68;;;;;;;;;;4934548;29;20110;-71
2022/04/05 07:25:38;;;;;;;13.45;5.30;;;;;;;;;;4934924;29;20119;-76
2022/04/05 07:28:04;;;;;;;12.70;5.50;;;;;;;;;;4933775;29;20047;-72
2022/04/05 07:30:30;;;;;;;13.73;5.05;;;;;;;;;;4934636;29;20044;-75
2022/04/05 07:32:56;;;;;;;9.02;5.40;;;;;;;;;;4933699;29;20042;-75
2022/04/05 07:35:22;;;;;;;10.80;5.18;;;;;;;;;;4934634;29;20044;-75
2022/04/05 07:37:48;;;;;;;11.68;5.22;;;;;;;;;;4933682;29;20031;-78
2022/04/05 07:40:14;;;;;;;9.25;4.97;;;;;;;;;;4934549;29;20028;-72
2022/04/05 07:42:41;;;;;;;11.40;5.22;;;;;;;;;;4933496;29;20099;-71
2022/04/05 07:45:08;;;;;;;12.80;6.20;;;;;;;;;;4934742;29;20496;-74
2022/04/05 07:47:35;;;;;;;8.13;5.95;;;;;;;;;;4934765;29;20178;-76
2022/04/05 07:50:01;;;;;;;7.30;5.13;;;;;;;;;;4934707;29;20509;-75
2022/04/05 07:52:27;;;;;;;14.18;5.65;;;;;;;;;;4934221;29;20110;-76
2022/04/05 07:54:53;;;;;;;9.68;5.28;;;;;;;;;;4934033;29;20094;-75
2022/04/05 07:57:19;;;;;;;9.40;4.70;;;;;;;;;;4933931;29;20164;-74
2022/04/05 07:59:45;;;;;;;12.18;5.45;;;;;;;;;;4934315;29;20095;-75
2022/04/05 08:02:10;;;;;;;11.77;5.07;;;;;;;;;;4933328;29;20114;-75
2022/04/05 08:04:36;;;;;;;9.25;4.85;;;;;;;;;;4934141;29;20036;-73
2022/04/05 08:07:02;;;;;;;13.93;4.75;;;;;;;;;;4934193;29;20024;-76
2022/04/05 08:09:28;;;;;;;10.00;6.15;;;;;;;;;;4934533;29;20482;-75
2022/04/05 08:11:54;;;;;;;8.85;4.75;;;;;;;;;;4934331;29;20056;-76
2022/04/05 08:14:21;;;;;;;11.20;5.03;;;;;;;;;;4934195;29;20027;-74
2022/04/05 08:16:47;;;;;;;8.10;4.18;;;;;;;;;;4934217;29;20485;-75
2022/04/05 08:19:13;;;;;;;7.68;4.35;;;;;;;;;;4934375;29;20114;-73
2022/04/05 08:21:39;;;;;;;7.90;4.85;;;;;;;;;;4934350;29;20102;-73
2022/04/05 08:24:05;;;;;;;7.38;4.38;;;;;;;;;;4936616;29;20139;-75
2022/04/05 08:26:31;;;;;;;8.77;4.50;;;;;;;;;;4953132;28;20035;-75
2022/04/05 08:28:58;;;;;;;10.77;4.75;;;;;;;;;;4953071;28;20090;-72
2022/04/05 08:31:24;;;;;;;10.13;4.40;;;;;;;;;;4956211;28;20035;-73
2022/04/05 08:33:51;;;;;;;7.63;4.63;;;;;;;;;;4956578;28;20043;-74
2022/04/05 08:36:16;;;;;;;12.05;4.63;;;;;;;;;;4956685;28;20102;-73
2022/04/05 08:38:42;;;;;;;7.88;4.60;;;;;;;;;;4956868;28;20514;-73
2022/04/05 08:41:10;;;;;;;7.15;4.55;;;;;;;;;;4956790;28;20020;-71
2022/04/05 08:43:37;;;;;;;12.13;5.28;;;;;;;;;;4956371;28;20402;-74
2022/04/05 08:46:05;;;;;;;10.90;4.97;;;;;;;;;;4956355;28;20035;-73
2022/04/05 08:48:34;;;;;;;11.48;4.35;;;;;;;;;;4944450;28;20154;-72
2022/04/05 08:51:00;;;;;;;9.63;4.70;;;;;;;;;;4937562;29;20032;-74
2022/04/05 08:53:28;;;;;;;10.52;4.25;;;;;;;;;;4938045;29;20032;-77
2022/04/05 08:55:53;;;;;;;10.15;4.57;;;;;;;;;;4936993;29;20027;-79
2022/04/05 08:58:20;;;;;;;9.32;4.35;;;;;;;;;;4937140;29;20038;-75
2022/04/05 09:00:46;;;;;;;6.35;4.15;;;;;;;;;;4937198;29;20023;-73
2022/04/05 09:03:12;;;;;;;10.00;4.63;;;;;;;;;;4937012;29;20059;-72
2022/04/05 09:05:43;;;;;;;13.70;4.55;;;;;;;;;;4937499;29;20478;-72
2022/04/05 09:08:25;;;;;;;8.73;4.47;;;;;;;;;;4937601;29;20055;-73
2022/04/05 09:10:53;;;;;;;7.63;3.85;;;;;;;;;;4937079;29;20036;-74
2022/04/05 09:13:27;;;;;;;8.20;4.10;;;;;;;;;;4936923;29;20059;-73
2022/04/05 09:15:58;;;;;;;8.57;4.13;;;;;;;;;;4935347;29;20048;-72
2022/04/05 09:18:28;;;;;;;6.18;4.22;;;;;;;;;;4936860;29;20032;-73
2022/04/05 09:20:54;;;;;;;6.78;3.97;;;;;;;;;;4936828;29;20035;-72
2022/04/05 09:23:33;;;;;;;7.45;3.75;;;;;;;;;;4936179;29;20584;-73
2022/04/05 09:26:12;;;;;;;8.30;4.07;;;;;;;;;;4936134;29;20160;-73
2022/04/05 09:28:41;;;;;;;6.00;3.67;;;;;;;;;;4935921;29;20048;-74
2022/04/05 09:31:12;;;;;;;6.70;4.00;;;;;;;;;;4936280;29;20039;-72
2022/04/05 09:33:59;;;;;;;7.88;3.45;;;;;;;;;;4936234;29;20059;-77
2022/04/05 09:36:32;;;;;;;7.95;3.83;;;;;;;;;;4936400;29;20050;-73
2022/04/05 09:39:09;;;;;;;7.25;3.63;;;;;;;;;;4936376;29;20039;-76
2022/04/05 09:41:35;;;;;;;5.47;3.00;;;;;;;;;;4935568;29;20526;-74
2022/04/05 09:44:02;;;;;;;11.43;4.10;;;;;;;;;;4934620;29;20027;-75
2022/04/05 09:46:29;;;;;;;8.98;4.22;;;;;;;;;;4936392;29;20043;-74
2022/04/05 09:49:10;;;;;;;8.50;4.20;;;;;;;;;;4936510;29;20368;-76
2022/04/05 09:51:45;;;;;;;8.13;4.30;;;;;;;;;;4934808;29;20035;-74
2022/04/05 09:54:32;;;;;;;7.57;3.88;;;;;;;;;;4935701;29;20044;-74
2022/04/05 09:57:01;;;;;;;8.57;4.10;;;;;;;;;;4935922;29;20050;-73
2022/04/05 09:59:37;;;;;;;11.30;4.10;;;;;;;;;;4935580;29;20078;-74
2022/04/05 10:02:17;;;;;;;7.47;4.22;;;;;;;;;;4935935;29;20391;-72
2022/04/05 10:05:21;;;;;;;13.43;4.38;;;;;;;;;;4935467;29;20040;-73
2022/04/05 10:07:47;;;;;;;5.15;3.30;;;;;;;;;;4914772;29;20058;-72
2022/04/05 10:10:13;;;;;;;7.45;3.55;;;;;;;;;;4914237;29;20566;-73
2022/04/05 10:12:39;;;;;;;12.77;4.45;;;;;;;;;;4924229;29;20043;-72
2022/04/05 10:15:05;;;;;;;9.60;3.83;;;;;;;;;;4935622;29;20039;-72
2022/04/05 10:17:31;;;;;;;5.43;3.03;;;;;;;;;;4935497;29;20063;-74
2022/04/05 10:19:57;;;;;;;6.75;3.15;;;;;;;;;;4935220;29;20034;-74
2022/04/05 10:22:24;;;;;;;6.55;3.63;;;;;;;;;;4935445;29;20031;-75
2022/04/05 10:24:53;;;;;;;6.25;3.50;;;;;;;;;;4935127;29;20042;-73
2022/04/05 10:27:21;;;;;;;8.15;3.95;;;;;;;;;;4935608;29;20040;-73
2022/04/05 10:30:05;;;;;;;9.77;4.13;;;;;;;;;;4935452;29;20055;-74
2022/04/05 10:32:46;;;;;;;4.57;3.22;;;;;;;;;;4935270;29;20075;-76
2022/04/05 10:35:14;;;;;;;9.75;3.45;;;;;;;;;;4934956;29;20091;-73
2022/04/05 10:37:41;;;;;;;19.50;5.25;;;;;;;;;;4935416;29;20060;-72
2022/04/05 10:40:10;;;;;;;6.55;3.75;;;;;;;;;;4935432;29;20036;-72
2022/04/05 10:42:43;;;;;;;7.15;3.38;;;;;;;;;;4935168;29;20503;-73
2022/04/05 10:45:16;;;;;;;7.50;3.47;;;;;;;;;;4934469;29;20048;-71
2022/04/05 10:48:12;;;;;;;7.57;3.35;;;;;;;;;;4946103;29;20042;-73
2022/04/05 10:50:40;;;;;;;6.50;3.25;;;;;;;;;;4954268;28;20043;-74
2022/04/05 10:53:21;;;;;;;8.20;3.40;;;;;;;;;;4954096;28;20332;-74
2022/04/05 10:56:10;;;;;;;7.55;3.60;;;;;;;;;;4954412;28;20058;-74
2022/04/05 10:58:37;;;;;;;5.88;3.30;;;;;;;;;;4951424;28;20055;-73
2022/04/05 11:01:19;;;;;;;9.93;4.13;;;;;;;;;;4954124;28;20062;-74
2022/04/05 11:04:18;;;;;;;9.48;3.60;;;;;;;;;;4952793;29;20470;-73
2022/04/05 11:07:02;;;;;;;4.88;3.20;;;;;;;;;;4950522;28;20463;-72
2022/04/05 11:09:40;;;;;;;8.38;3.97;;;;;;;;;;4953829;28;20027;-75
2022/04/05 11:12:11;;;;;;;7.72;3.30;;;;;;;;;;4954251;28;20039;-72
2022/04/05 11:14:41;;;;;;;6.78;3.45;;;;;;;;;;4954132;28;20537;-75
2022/04/05 11:17:08;;;;;;;6.10;3.45;;;;;;;;;;4936237;28;20055;-77
2022/04/05 11:19:36;;;;;;;19.00;5.30;;;;;;;;;;4921004;29;20039;-74
2022/04/05 11:22:26;;;;;;;6.90;3.50;;;;;;;;;;4934484;29;20388;-77
2022/04/05 11:24:53;;;;;;;7.95;3.92;;;;;;;;;;4935287;29;20078;-76
2022/04/05 11:27:48;;;;;;;6.93;3.40;;;;;;;;;;4934751;29;20037;-74
2022/04/05 11:30:25;;;;;;;10.43;4.10;;;;;;;;;;4934707;29;20396;-74
2022/04/05 11:33:09;;;;;;;6.75;4.22;;;;;;;;;;4934288;29;20439;-74
2022/04/05 11:35:51;;;;;;;10.15;4.13;;;;;;;;;;4933866;29;20356;-75
2022/04/05 11:38:17;;;;;;;17.80;8.25;;;;;;;;;;4934315;29;20086;-78
2022/04/05 11:41:00;;;;;;;9.98;4.07;;;;;;;;;;4934607;29;20024;-75
2022/04/05 11:43:34;;;;;;;10.75;3.55;;;;;;;;;;4934094;29;20472;-73
2022/04/05 11:46:12;;;;;;;6.03;3.30;;;;;;;;;;4934419;29;20444;-73
2022/04/05 11:48:44;;;;;;;8.07;3.13;;;;;;;;;;4934808;29;20051;-75
2022/04/05 11:51:13;;;;;;;9.30;3.40;;;;;;;;;;4934678;29;20095;-78
2022/04/05 11:53:40;;;;;;;8.30;3.30;;;;;;;;;;4934295;29;20038;-76
2022/04/05 11:56:06;;;;;;;5.82;3.22;;;;;;;;;;4934187;29;20044;-79
2022/04/05 11:58:34;;;;;;;7.82;3.83;;;;;;;;;;4934592;29;20383;-78
2022/04/05 12:01:05;;;;;;;14.18;4.57;;;;;;;;;;4933190;29;20067;-79
2022/04/05 12:03:52;;;;;;;6.97;3.47;;;;;;;;;;4934271;29;20054;-78
2022/04/05 12:06:39;;;;;;;11.60;4.07;;;;;;;;;;4937560;29;20578;-77
2022/04/05 12:09:07;;;;;;;8.45;3.85;;;;;;;;;;4938154;29;20036;-79
2022/04/05 12:11:36;;;;;;;9.73;4.35;;;;;;;;;;4938162;29;20032;-77
2022/04/05 12:14:10;;;;;;;5.07;3.17;;;;;;;;;;4937768;29;20087;-73
2022/04/05 12:16:57;;;;;;;10.52;4.00;;;;;;;;;;4937877;29;20039;-77
2022/04/05 12:19:26;;;;;;;8.93;3.70;;;;;;;;;;4937909;29;20046;-78
2022/04/05 12:21:54;;;;;;;11.00;4.00;;;;;;;;;;4937851;29;20126;-77
2022/04/05 12:24:21;;;;;;;7.50;3.83;;;;;;;;;;4937981;29;20094;-79
2022/04/05 12:26:46;;;;;;;19.58;4.97;;;;;;;;;;4937439;29;20126;-76
2022/04/05 12:29:13;;;;;;;10.63;4.00;;;;;;;;;;4937389;29;20131;-77
2022/04/05 12:31:38;;;;;;;9.88;4.30;;;;;;;;;;4937603;29;20059;-77
2022/04/05 12:34:13;;;;;;;13.75;5.57;;;;;;;;;;4936657;29;20100;-78
2022/04/05 12:36:47;;;;;;;7.28;3.70;;;;;;;;;;4937650;29;20386;-78
2022/04/05 12:39:24;;;;;;;7.55;3.50;;;;;;;;;;4937574;29;20031;-76
2022/04/05 12:41:57;;;;;;;8.68;4.47;;;;;;;;;;4935606;29;20479;-79
2022/04/05 12:44:27;;;;;;;8.68;4.18;;;;;;;;;;4927786;29;20487;-75
2022/04/05 12:46:59;;;;;;;9.68;4.35;;;;;;;;;;4927461;29;20107;-78
2022/04/05 12:49:45;;;;;;;6.32;3.25;;;;;;;;;;4929088;29;20039;-78
2022/04/05 12:52:17;;;;;;;6.97;3.47;;;;;;;;;;4937484;29;20455;-73
2022/04/05 12:54:47;;;;;;;12.75;3.97;;;;;;;;;;4937314;29;20035;-76
2022/04/05 12:57:29;;;;;;;5.63;3.50;;;;;;;;;;4936220;29;20051;-76
2022/04/05 13:00:16;;;;;;;10.25;4.63;;;;;;;;;;4918088;29;20063;-76
2022/04/05 13:02:49;;;;;;;10.73;4.20;;;;;;;;;;4933712;29;20038;-77
2022/04/05 13:08:10;;;;;;;16.30;4.82;;;;;;;;;;4927387;29;20028;-71
2022/04/05 13:10:45;;;;;;;9.05;3.78;;;;;;;;;;4919116;29;20068;-73
2022/04/05 13:13:21;;;;;;;10.90;4.60;;;;;;;;;;4920756;29;20034;-75
2022/04/05 13:15:49;;;;;;;7.68;3.80;;;;;;;;;;4936585;29;20038;-74
2022/04/05 13:18:15;;;;;;;8.95;3.75;;;;;;;;;;4936486;29;20471;-75
2022/04/05 13:20:42;;;;;;;10.98;3.80;;;;;;;;;;4936899;29;20042;-75
2022/04/05 13:23:09;;;;;;;10.13;4.07;;;;;;;;;;4936886;29;20398;-70
2022/04/05 13:25:39;;;;;;;6.88;4.07;;;;;;;;;;4936282;29;20550;-73
2022/04/05 13:28:09;;;;;;;10.48;3.70;;;;;;;;;;4933832;29;20035;-71
2022/04/05 13:30:43;;;;;;;7.03;3.88;;;;;;;;;;4935827;29;20059;-73
2022/04/05 13:33:10;;;;;;;10.25;3.78;;;;;;;;;;4934614;29;20115;-71
2022/04/05 13:35:36;;;;;;;7.97;3.53;;;;;;;;;;4935437;29;20036;-73
2022/04/05 13:38:02;;;;;;;7.15;3.95;;;;;;;;;;4932699;29;20094;-72
2022/04/05 13:40:28;;;;;;;5.60;3.85;;;;;;;;;;4935600;29;20034;-72
2022/04/05 13:42:54;;;;;;;9.93;4.40;;;;;;;;;;4935029;29;20048;-74
2022/04/05 13:45:21;;;;;;;6.18;4.05;;;;;;;;;;4934644;29;20035;-75
2022/04/05 13:47:47;;;;;;;6.30;3.58;;;;;;;;;;4934892;29;20088;-74
2022/04/05 13:50:16;;;;;;;6.50;3.58;;;;;;;;;;4936451;29;20508;-75
2022/04/05 13:52:42;;;;;;;7.18;3.70;;;;;;;;;;4935198;29;20036;-76
2022/04/05 13:55:09;;;;;;;8.73;4.20;;;;;;;;;;4936064;29;20028;-73
2022/04/05 13:57:35;;;;;;;7.32;4.45;;;;;;;;;;4936382;29;20032;-73
2022/04/05 14:00:03;;;;;;;11.32;6.03;;;;;;;;;;4935125;29;20063;-74
2022/04/05 14:02:36;;;;;;;8.52;4.57;;;;;;;;;;4936601;29;20503;-74
2022/04/05 14:05:03;;;;;;;7.63;4.07;;;;;;;;;;4936544;29;20091;-75
2022/04/05 14:07:31;;;;;;;12.88;4.13;;;;;;;;;;4935538;29;20077;-76
2022/04/05 14:09:58;;;;;;;5.57;4.00;;;;;;;;;;4936225;29;20047;-79
2022/04/05 14:12:23;;;;;;;11.50;4.32;;;;;;;;;;4936039;29;20043;-73
2022/04/05 14:14:49;;;;;;;9.32;4.07;;;;;;;;;;4935950;29;20051;-74
2022/04/05 14:17:15;;;;;;;6.72;4.13;;;;;;;;;;4936070;29;20110;-75
2022/04/05 14:19:41;;;;;;;11.38;4.13;;;;;;;;;;4936157;29;20487;-73
2022/04/05 14:22:06;;;;;;;6.53;3.88;;;;;;;;;;4935993;29;20028;-74
2022/04/05 14:24:32;;;;;;;7.93;4.15;;;;;;;;;;4929833;29;20043;-75
2022/04/05 14:26:58;;;;;;;8.07;4.13;;;;;;;;;;4917314;29;20032;-73
2022/04/05 14:29:24;;;;;;;7.90;4.90;;;;;;;;;;4916735;29;20044;-76
2022/04/05 14:31:50;;;;;;;9.88;4.40;;;;;;;;;;4917095;29;20044;-75
2022/04/05 14:34:16;;;;;;;9.45;4.20;;;;;;;;;;4916975;29;20040;-72
2022/04/05 14:36:43;;;;;;;7.85;4.40;;;;;;;;;;4916796;29;20110;-75
2022/04/05 14:39:09;;;;;;;10.38;4.35;;;;;;;;;;4917082;29;20047;-76
2022/04/05 14:41:36;;;;;;;8.88;4.22;;;;;;;;;;4918236;29;20029;-79
2022/04/05 14:44:02;;;;;;;9.73;4.15;;;;;;;;;;4931857;29;20047;-78
2022/04/05 14:46:32;;;;;;;10.02;4.10;;;;;;;;;;4934115;29;20028;-78
2022/04/05 14:49:00;;;;;;;8.13;3.90;;;;;;;;;;4928786;29;20039;-78
2022/04/05 14:51:28;;;;;;;9.05;4.30;;;;;;;;;;4927491;29;20124;-78